Time,TemperatureF,DewpointF,PressureIn,WindDirection,WindDirectionDegrees,WindSpeedMPH,WindSpeedGustMPH,Humidity,HourlyPrecipIn,Conditions,Clouds,dailyrainin,SoftwareType,DateUTC
2013-06-04 00:01:00,63.4,29.0,30.02,SW,227,6.0,-999.0,27,-99.99,,,0.00,weatherlink.com 1.10,2013-06-04 06:01:00,
2013-06-04 00:14:00,62.4,27.0,30.02,SW,217,9.0,-999.0,26,-99.99,,,0.00,weatherlink.com 1.10,2013-06-04 06:14:00,
2013-06-04 00:31:00,63.1,25.0,30.02,SSW,205,7.0,-999.0,23,-99.99,,,0.00,weatherlink.com 1.10,2013-06-04 06:31:00,
2013-06-04 00:45:00,60.8,27.0,30.02,SE,129,4.0,-999.0,28,-99.99,,,0.00,weatherlink.com 1.10,2013-06-04 06:45:00,
2013-06-04 01:01:00,59.2,27.0,30.03,SE,130,0.0,-999.0,29,-99.99,,,0.00,weatherlink.com 1.10,2013-06-04 07:01:00,
2013-06-04 01:15:00,58.6,26.0,30.03,WNW,289,4.0,-999.0,29,-99.99,,,0.00,weatherlink.com 1.10,2013-06-04 07:15:00,
2013-06-04 01:31:00,58.7,27.0,30.03,WSW,239,1.0,-999.0,30,-99.99,,,0.00,weatherlink.com 1.10,2013-06-04 07:31:00,
2013-06-04 01:45:00,58.0,26.0,30.03,WSW,241,3.0,-999.0,29,-99.99,,,0.00,weatherlink.com 1.10,2013-06-04 07:45:00,
2013-06-04 02:01:00,57.2,27.0,30.03,WSW,251,2.0,-999.0,31,-99.99,,,0.00,weatherlink.com 1.10,2013-06-04 08:01:00,
2013-06-04 02:14:00,56.3,27.0,30.04,West,265,1.0,-999.0,32,-99.99,,,0.00,weatherlink.com 1.10,2013-06-04 08:14:00,
2013-06-04 02:29:00,54.2,29.0,30.05,West,271,0.0,-999.0,38,-99.99,,,0.00,weatherlink.com 1.10,2013-06-04 08:29:00,
2013-06-04 02:45:00,53.2,27.0,30.05,North,5,0.0,-999.0,36,-99.99,,,0.00,weatherlink.com 1.10,2013-06-04 08:45:00,
2013-06-04 03:01:00,53.9,30.0,30.07,WSW,247,5.0,-999.0,41,-99.99,,,0.00,weatherlink.com 1.10,2013-06-04 09:01:00,
2013-06-04 03:15:00,53.6,28.0,30.07,West,259,4.0,-999.0,38,-99.99,,,0.00,weatherlink.com 1.10,2013-06-04 09:15:00,
2013-06-04 03:31:00,54.0,32.0,30.08,West,261,5.0,-999.0,43,-99.99,,,0.00,weatherlink.com 1.10,2013-06-04 09:31:00,
2013-06-04 03:45:00,53.8,34.0,30.08,WSW,250,4.0,-999.0,48,-99.99,,,0.00,weatherlink.com 1.10,2013-06-04 09:45:00,
2013-06-04 04:01:00,53.0,32.0,30.09,WSW,251,4.0,-999.0,45,-99.99,,,0.00,weatherlink.com 1.10,2013-06-04 10:01:00,
2013-06-04 04:15:00,52.9,34.0,30.09,West,267,6.0,-999.0,49,-99.99,,,0.00,weatherlink.com 1.10,2013-06-04 10:15:00,
2013-06-04 04:31:00,53.4,35.0,30.10,WSW,252,7.0,-999.0,51,-99.99,,,0.00,weatherlink.com 1.10,2013-06-04 10:31:00,
2013-06-04 04:45:00,53.7,38.0,30.10,WSW,250,1.0,-999.0,55,-99.99,,,0.00,weatherlink.com 1.10,2013-06-04 10:45:00,
2013-06-04 05:01:00,54.5,37.0,30.10,West,269,1.0,-999.0,53,-99.99,,,0.00,weatherlink.com 1.10,2013-06-04 11:01:00,
2013-06-04 05:15:00,55.1,38.0,30.12,West,269,0.0,-999.0,53,-99.99,,,0.00,weatherlink.com 1.10,2013-06-04 11:15:00,
2013-06-04 05:31:00,53.1,40.0,30.12,North,10,4.0,-999.0,62,-99.99,,,0.00,weatherlink.com 1.10,2013-06-04 11:31:00,
2013-06-04 05:45:00,51.9,40.0,30.14,NNE,28,3.0,-999.0,65,-99.99,,,0.00,weatherlink.com 1.10,2013-06-04 11:45:00,
2013-06-04 06:01:00,52.1,41.0,30.14,NNW,339,3.0,-999.0,67,-99.99,,,0.00,weatherlink.com 1.10,2013-06-04 12:01:00,
2013-06-04 06:14:00,51.9,43.0,30.14,North,355,2.0,-999.0,71,-99.99,,,0.00,weatherlink.com 1.10,2013-06-04 12:14:00,
2013-06-04 06:29:00,52.1,44.0,30.14,NNW,338,3.0,-999.0,73,-99.99,,,0.00,weatherlink.com 1.10,2013-06-04 12:29:00,
2013-06-04 06:44:00,52.8,45.0,30.14,North,355,0.0,-999.0,74,-99.99,,,0.00,weatherlink.com 1.10,2013-06-04 12:44:00,
2013-06-04 06:59:00,53.5,45.0,30.14,North,355,0.0,-999.0,72,-99.99,,,0.00,weatherlink.com 1.10,2013-06-04 12:59:00,
2013-06-04 07:14:00,53.9,44.0,30.14,North,355,0.0,-999.0,70,-99.99,,,0.00,weatherlink.com 1.10,2013-06-04 13:14:00,
2013-06-04 07:29:00,54.4,44.0,30.14,North,355,0.0,-999.0,69,-99.99,,,0.00,weatherlink.com 1.10,2013-06-04 13:29:00,
2013-06-04 07:45:00,55.0,45.0,30.14,North,355,0.0,-999.0,68,-99.99,,,0.00,weatherlink.com 1.10,2013-06-04 13:45:00,
2013-06-04 08:01:00,55.7,44.0,30.14,ENE,74,0.0,-999.0,66,-99.99,,,0.00,weatherlink.com 1.10,2013-06-04 14:01:00,
2013-06-04 08:15:00,56.4,45.0,30.14,ESE,109,2.0,-999.0,66,-99.99,,,0.00,weatherlink.com 1.10,2013-06-04 14:15:00,
2013-06-04 08:31:00,56.1,45.0,30.14,ENE,70,3.0,-999.0,66,-99.99,,,0.00,weatherlink.com 1.10,2013-06-04 14:31:00,
2013-06-04 08:45:00,56.0,45.0,30.14,East,94,3.0,-999.0,67,-99.99,,,0.00,weatherlink.com 1.10,2013-06-04 14:45:00,
2013-06-04 09:01:00,56.5,46.0,30.14,East,81,5.0,-999.0,67,-99.99,,,0.00,weatherlink.com 1.10,2013-06-04 15:01:00,
2013-06-04 09:15:00,56.9,46.0,30.14,East,87,5.0,-999.0,66,-99.99,,,0.00,weatherlink.com 1.10,2013-06-04 15:15:00,
2013-06-04 09:32:00,57.2,45.0,30.13,ENE,68,3.0,-999.0,65,-99.99,,,0.00,weatherlink.com 1.10,2013-06-04 15:32:00,
2013-06-04 09:44:00,57.3,45.0,30.13,NE,48,6.0,-999.0,64,-99.99,,,0.00,weatherlink.com 1.10,2013-06-04 15:44:00,
2013-06-04 09:59:00,56.7,45.0,30.13,East,80,4.0,-999.0,66,-99.99,,,0.00,weatherlink.com 1.10,2013-06-04 15:59:00,
2013-06-04 10:15:00,56.9,46.0,30.13,East,86,0.0,-999.0,66,-99.99,,,0.00,weatherlink.com 1.10,2013-06-04 16:15:00,
2013-06-04 10:31:00,56.8,46.0,30.13,NNE,33,4.0,-999.0,67,-99.99,,,0.00,weatherlink.com 1.10,2013-06-04 16:31:00,
2013-06-04 10:45:00,58.1,47.0,30.12,South,173,4.0,-999.0,67,-99.99,,,0.00,weatherlink.com 1.10,2013-06-04 16:45:00,
2013-06-04 11:01:00,60.8,46.0,30.12,ESE,122,0.0,-999.0,59,-99.99,,,0.00,weatherlink.com 1.10,2013-06-04 17:01:00,
2013-06-04 11:15:00,60.7,48.0,30.12,South,191,8.0,-999.0,63,-99.99,,,0.00,weatherlink.com 1.10,2013-06-04 17:15:00,
2013-06-04 11:31:00,63.0,47.0,30.11,South,184,3.0,-999.0,56,-99.99,,,0.00,weatherlink.com 1.10,2013-06-04 17:31:00,
2013-06-04 11:45:00,65.3,47.0,30.11,SSW,208,7.0,-999.0,52,-99.99,,,0.00,weatherlink.com 1.10,2013-06-04 17:45:00,
2013-06-04 12:01:00,65.0,47.0,30.11,SSE,155,5.0,-999.0,53,-99.99,,,0.00,weatherlink.com 1.10,2013-06-04 18:01:00,
2013-06-04 12:15:00,66.4,48.0,30.10,NNW,327,2.0,-999.0,51,-99.99,,,0.00,weatherlink.com 1.10,2013-06-04 18:15:00,
2013-06-04 12:31:00,68.1,48.0,30.10,SSE,165,3.0,-999.0,48,-99.99,,,0.00,weatherlink.com 1.10,2013-06-04 18:31:00,
2013-06-04 12:45:00,67.9,47.0,30.10,South,178,11.0,-999.0,48,-99.99,,,0.00,weatherlink.com 1.10,2013-06-04 18:45:00,
2013-06-04 13:01:00,69.9,49.0,30.09,SSE,168,7.0,-999.0,47,-99.99,,,0.00,weatherlink.com 1.10,2013-06-04 19:01:00,
2013-06-04 13:15:00,68.4,49.0,30.09,SSE,164,2.0,-999.0,50,-99.99,,,0.00,weatherlink.com 1.10,2013-06-04 19:15:00,
2013-06-04 13:31:00,69.2,49.0,30.09,SSW,210,5.0,-999.0,49,-99.99,,,0.00,weatherlink.com 1.10,2013-06-04 19:31:00,
2013-06-04 13:45:00,68.6,47.0,30.09,ENE,60,3.0,-999.0,47,-99.99,,,0.00,weatherlink.com 1.10,2013-06-04 19:45:00,
2013-06-04 14:01:00,68.4,48.0,30.08,East,90,6.0,-999.0,48,-99.99,,,0.00,weatherlink.com 1.10,2013-06-04 20:01:00,
2013-06-04 14:15:00,70.4,47.0,30.08,ENE,60,5.0,-999.0,44,-99.99,,,0.00,weatherlink.com 1.10,2013-06-04 20:15:00,
2013-06-04 14:31:00,68.6,48.0,30.08,NNE,25,7.0,-999.0,48,-99.99,,,0.00,weatherlink.com 1.10,2013-06-04 20:31:00,
2013-06-04 14:45:00,69.2,47.0,30.09,NNE,32,4.0,-999.0,46,-99.99,,,0.00,weatherlink.com 1.10,2013-06-04 20:45:00,
2013-06-04 15:01:00,71.7,48.0,30.08,South,188,9.0,-999.0,43,-99.99,,,0.00,weatherlink.com 1.10,2013-06-04 21:01:00,
2013-06-04 15:15:00,71.7,48.0,30.07,SSE,152,2.0,-999.0,43,-99.99,,,0.00,weatherlink.com 1.10,2013-06-04 21:15:00,
2013-06-04 15:31:00,70.7,48.0,30.07,ENE,78,6.0,-999.0,45,-99.99,,,0.00,weatherlink.com 1.10,2013-06-04 21:31:00,
2013-06-04 15:45:00,69.4,48.0,30.08,SSW,201,5.0,-999.0,46,-99.99,,,0.00,weatherlink.com 1.10,2013-06-04 21:45:00,
2013-06-04 16:01:00,67.7,48.0,30.06,North,11,3.0,-999.0,49,-99.99,,,0.00,weatherlink.com 1.10,2013-06-04 22:01:00,
2013-06-04 16:15:00,68.5,48.0,30.08,WSW,257,5.0,-999.0,48,-99.99,,,0.00,weatherlink.com 1.10,2013-06-04 22:15:00,
2013-06-04 16:31:00,68.4,48.0,30.08,SSW,196,1.0,-999.0,48,-99.99,,,0.00,weatherlink.com 1.10,2013-06-04 22:31:00,
2013-06-04 16:45:00,69.3,48.0,30.07,WSW,242,1.0,-999.0,47,-99.99,,,0.00,weatherlink.com 1.10,2013-06-04 22:45:00,
2013-06-04 17:01:00,68.0,47.0,30.07,NNW,342,4.0,-999.0,47,-99.99,,,0.00,weatherlink.com 1.10,2013-06-04 23:01:00,
2013-06-04 17:15:00,67.1,47.0,30.07,WNW,300,2.0,-999.0,49,-99.99,,,0.00,weatherlink.com 1.10,2013-06-04 23:15:00,
2013-06-04 17:31:00,66.4,49.0,30.08,WNW,288,3.0,-999.0,53,-99.99,,,0.00,weatherlink.com 1.10,2013-06-04 23:31:00,
2013-06-04 17:45:00,66.1,50.0,30.05,NE,54,4.0,-999.0,57,-99.99,,,0.00,weatherlink.com 1.10,2013-06-04 23:45:00,
2013-06-04 18:01:00,67.3,48.0,30.05,NNE,24,3.0,-999.0,51,-99.99,,,0.00,weatherlink.com 1.10,2013-06-05 00:01:00,
2013-06-04 18:15:00,66.3,48.0,30.06,NNW,330,7.0,-999.0,53,-99.99,,,0.00,weatherlink.com 1.10,2013-06-05 00:15:00,
2013-06-04 18:45:00,65.4,49.0,30.09,WNW,290,4.0,-999.0,55,-99.99,,,0.00,weatherlink.com 1.10,2013-06-05 00:45:00,
2013-06-04 19:15:00,64.4,52.0,30.08,North,360,7.0,-999.0,64,-99.99,,,0.00,weatherlink.com 1.10,2013-06-05 01:15:00,
2013-06-04 19:31:00,63.1,49.0,30.09,NW,324,6.0,-999.0,61,-99.99,,,0.00,weatherlink.com 1.10,2013-06-05 01:31:00,
2013-06-04 19:45:00,63.1,49.0,30.09,NW,309,4.0,-999.0,60,-99.99,,,0.00,weatherlink.com 1.10,2013-06-05 01:45:00,
2013-06-04 20:01:00,62.6,49.0,30.11,WNW,296,5.0,-999.0,62,-99.99,,,0.00,weatherlink.com 1.10,2013-06-05 02:01:00,
2013-06-04 20:15:00,61.9,45.0,30.13,NNE,14,27.0,-999.0,55,-99.99,,,0.00,weatherlink.com 1.10,2013-06-05 02:15:00,
2013-06-04 20:31:00,58.8,44.0,30.16,NNE,15,20.0,-999.0,59,-99.99,,,0.00,weatherlink.com 1.10,2013-06-05 02:31:00,
2013-06-04 20:45:00,57.8,44.0,30.17,NNE,17,15.0,-999.0,61,-99.99,,,0.00,weatherlink.com 1.10,2013-06-05 02:45:00,
2013-06-04 21:01:00,55.8,45.0,30.18,NNE,17,17.0,-999.0,67,-99.99,,,0.01,weatherlink.com 1.10,2013-06-05 03:01:00,
2013-06-04 21:15:00,55.7,45.0,30.20,NE,49,8.0,-999.0,68,-99.99,,,0.01,weatherlink.com 1.10,2013-06-05 03:15:00,
2013-06-04 21:31:00,55.1,43.0,30.22,North,5,11.0,-999.0,63,-99.99,,,0.01,weatherlink.com 1.10,2013-06-05 03:31:00,
2013-06-04 21:45:00,54.6,43.0,30.23,NNE,13,10.0,-999.0,66,-99.99,,,0.01,weatherlink.com 1.10,2013-06-05 03:45:00,
2013-06-04 22:01:00,53.9,44.0,30.24,North,10,6.0,-999.0,69,-99.99,,,0.02,weatherlink.com 1.10,2013-06-05 04:01:00,
2013-06-04 22:15:00,52.6,45.0,30.25,NNE,17,4.0,-999.0,74,-99.99,,,0.04,weatherlink.com 1.10,2013-06-05 04:15:00,
2013-06-04 22:31:00,51.4,45.0,30.26,North,5,2.0,-999.0,79,-99.99,,,0.05,weatherlink.com 1.10,2013-06-05 04:31:00,
2013-06-04 22:45:00,51.0,46.0,30.27,West,263,5.0,-999.0,84,-99.99,,,0.05,weatherlink.com 1.10,2013-06-05 04:45:00,
2013-06-04 23:01:00,50.8,46.0,30.25,North,360,0.0,-999.0,84,-99.99,,,0.08,weatherlink.com 1.10,2013-06-05 05:01:00,
2013-06-04 23:14:00,50.8,47.0,30.25,NNE,17,0.0,-999.0,85,-99.99,,,0.09,weatherlink.com 1.10,2013-06-05 05:14:00,
2013-06-04 23:29:00,51.0,47.0,30.25,South,182,1.0,-999.0,87,-99.99,,,0.09,weatherlink.com 1.10,2013-06-05 05:29:00,
2013-06-04 23:45:00,51.0,47.0,30.26,SW,227,2.0,-999.0,87,-99.99,,,0.09,weatherlink.com 1.10,2013-06-05 05:45:00,